sensor_id;sensor_type;location;lat;lon;timestamp;pressure;altitude;pressure_sealevel;temperature;humidity
44079;BME280;29744;49.078;12.878;2023-02-18T00:01:13;96949.28;;;15.80;32.09
44079;BME280;29744;49.078;12.878;2023-02-18T00:06:20;96959.91;;;15.76;32.26
44079;BME280;29744;49.078;12.878;2023-02-18T00:11:21;96969.78;;;15.72;31.96
44079;BME280;29744;49.078;12.878;2023-02-18T00:16:23;96974.38;;;15.71;31.83
44079;BME280;29744;49.078;12.878;2023-02-18T00:21:24;96952.59;;;15.68;31.96
44079;BME280;29744;49.078;12.878;2023-02-18T00:26:24;96974.06;;;15.64;32.12
44079;BME280;29744;49.078;12.878;2023-02-18T00:31:31;96970.09;;;15.62;31.95
44079;BME280;29744;49.078;12.878;2023-02-18T00:36:31;96959.91;;;15.59;32.25
44079;BME280;29744;49.078;12.878;2023-02-18T00:41:32;96968.34;;;15.57;31.99
44079;BME280;29744;49.078;12.878;2023-02-18T00:46:34;96958.16;;;15.54;32.00
44079;BME280;29744;49.078;12.878;2023-02-18T00:51:35;96959.59;;;15.52;32.11
44079;BME280;29744;49.078;12.878;2023-02-18T00:56:35;96961.00;;;15.49;32.01
44079;BME280;29744;49.078;12.878;2023-02-18T01:01:36;96958.63;;;15.48;32.34
44079;BME280;29744;49.078;12.878;2023-02-18T01:06:36;96972.47;;;15.46;32.21
44079;BME280;29744;49.078;12.878;2023-02-18T01:11:36;96960.69;;;15.42;32.38
44079;BME280;29744;49.078;12.878;2023-02-18T01:16:37;96955.91;;;15.39;32.54
44079;BME280;29744;49.078;12.878;2023-02-18T01:21:37;96964.03;;;15.39;31.83
44079;BME280;29744;49.078;12.878;2023-02-18T01:26:38;96956.53;;;15.36;32.25
44079;BME280;29744;49.078;12.878;2023-02-18T01:31:38;96952.56;;;15.33;32.03
44079;BME280;29744;49.078;12.878;2023-02-18T01:36:38;96955.59;;;15.32;32.04
44079;BME280;29744;49.078;12.878;2023-02-18T01:41:38;96957.81;;;15.30;32.47
44079;BME280;29744;49.078;12.878;2023-02-18T01:46:39;96945.41;;;15.29;32.60
44079;BME280;29744;49.078;12.878;2023-02-18T01:51:43;96940.63;;;15.26;32.21
44079;BME280;29744;49.078;12.878;2023-02-18T01:56:49;96940.47;;;15.22;32.24
44079;BME280;29744;49.078;12.878;2023-02-18T02:01:50;96944.28;;;15.21;32.28
44079;BME280;29744;49.078;12.878;2023-02-18T02:06:51;96933.78;;;15.20;32.64
44079;BME280;29744;49.078;12.878;2023-02-18T02:12:09;96933.00;;;15.19;32.71
44079;BME280;29744;49.078;12.878;2023-02-18T02:27:44;96919.00;;;15.08;32.73
44079;BME280;29744;49.078;12.878;2023-02-18T02:38:33;96928.84;;;15.04;32.32
44079;BME280;29744;49.078;12.878;2023-02-18T02:49:33;96917.03;;;15.00;32.86
44079;BME280;29744;49.078;12.878;2023-02-18T02:54:35;96925.16;;;15.00;32.88
44079;BME280;29744;49.078;12.878;2023-02-18T02:59:37;96912.75;;;14.99;32.67
44079;BME280;29744;49.078;12.878;2023-02-18T03:10:38;96891.28;;;14.94;32.51
44079;BME280;29744;49.078;12.878;2023-02-18T03:15:37;96907.50;;;14.94;32.87
44079;BME280;29744;49.078;12.878;2023-02-18T03:21:22;96910.50;;;14.93;32.52
44079;BME280;29744;49.078;12.878;2023-02-18T03:26:17;96913.53;;;14.91;32.65
44079;BME280;29744;49.078;12.878;2023-02-18T03:31:20;96911.16;;;14.90;32.97
44079;BME280;29744;49.078;12.878;2023-02-18T03:36:22;96915.75;;;14.89;32.63
44079;BME280;29744;49.078;12.878;2023-02-18T03:41:23;96917.66;;;14.89;32.51
44079;BME280;29744;49.078;12.878;2023-02-18T03:46:23;96909.06;;;14.87;32.99
44079;BME280;29744;49.078;12.878;2023-02-18T03:51:24;96905.56;;;14.86;33.09
44079;BME280;29744;49.078;12.878;2023-02-18T03:56:24;96909.69;;;14.83;33.09
44079;BME280;29744;49.078;12.878;2023-02-18T04:01:24;96916.22;;;14.82;32.71
44079;BME280;29744;49.078;12.878;2023-02-18T04:06:25;96915.41;;;14.82;32.71
44079;BME280;29744;49.078;12.878;2023-02-18T04:11:25;96909.53;;;14.80;32.96
44079;BME280;29744;49.078;12.878;2023-02-18T04:16:25;96912.22;;;14.80;32.71
44079;BME280;29744;49.078;12.878;2023-02-18T04:21:26;96919.84;;;14.78;32.93
44079;BME280;29744;49.078;12.878;2023-02-18T04:26:26;96929.06;;;14.77;33.10
44079;BME280;29744;49.078;12.878;2023-02-18T04:31:27;96923.97;;;14.75;33.02
44079;BME280;29744;49.078;12.878;2023-02-18T04:36:27;96922.38;;;14.74;32.72
44079;BME280;29744;49.078;12.878;2023-02-18T04:41:27;96928.88;;;14.73;33.16
44079;BME280;29744;49.078;12.878;2023-02-18T04:46:27;96917.78;;;14.75;33.14
44079;BME280;29744;49.078;12.878;2023-02-18T04:51:28;96920.97;;;14.77;32.97
44079;BME280;29744;49.078;12.878;2023-02-18T04:56:28;96933.19;;;14.83;32.68
44079;BME280;29744;49.078;12.878;2023-02-18T05:01:28;96908.75;;;14.88;32.65
44079;BME280;29744;49.078;12.878;2023-02-18T05:06:29;96915.78;;;14.98;32.75
44079;BME280;29744;49.078;12.878;2023-02-18T05:11:29;96909.63;;;15.06;32.70
44079;BME280;29744;49.078;12.878;2023-02-18T05:16:29;96916.31;;;15.17;33.01
44079;BME280;29744;49.078;12.878;2023-02-18T05:21:30;96897.56;;;15.29;32.42
44079;BME280;29744;49.078;12.878;2023-02-18T05:26:30;96915.06;;;15.40;32.71
44079;BME280;29744;49.078;12.878;2023-02-18T05:31:30;96911.41;;;15.54;32.71
44079;BME280;29744;49.078;12.878;2023-02-18T05:36:31;96910.44;;;15.67;32.20
44079;BME280;29744;49.078;12.878;2023-02-18T05:41:31;96904.09;;;15.80;32.48
44079;BME280;29744;49.078;12.878;2023-02-18T05:46:32;96914.25;;;15.92;32.29
44079;BME280;29744;49.078;12.878;2023-02-18T05:51:32;96921.41;;;16.05;32.49
44079;BME280;29744;49.078;12.878;2023-02-18T05:56:32;96920.75;;;16.17;32.06
44079;BME280;29744;49.078;12.878;2023-02-18T06:01:33;96922.78;;;16.28;32.11
44079;BME280;29744;49.078;12.878;2023-02-18T06:06:33;96924.34;;;16.38;32.33
44079;BME280;29744;49.078;12.878;2023-02-18T06:11:34;96917.34;;;16.46;32.13
44079;BME280;29744;49.078;12.878;2023-02-18T06:16:35;96923.38;;;16.51;31.59
44079;BME280;29744;49.078;12.878;2023-02-18T06:21:35;96920.50;;;16.56;31.57
44079;BME280;29744;49.078;12.878;2023-02-18T06:26:35;96911.41;;;16.61;31.61
44079;BME280;29744;49.078;12.878;2023-02-18T06:31:36;96913.47;;;16.64;32.06
44079;BME280;29744;49.078;12.878;2023-02-18T06:36:36;96912.03;;;16.66;31.71
44079;BME280;29744;49.078;12.878;2023-02-18T06:41:36;96905.50;;;16.67;31.78
44079;BME280;29744;49.078;12.878;2023-02-18T06:46:37;96910.91;;;16.67;31.41
44079;BME280;29744;49.078;12.878;2023-02-18T06:51:37;96904.38;;;16.68;31.89
44079;BME280;29744;49.078;12.878;2023-02-18T06:56:37;96906.59;;;16.66;31.30
44079;BME280;29744;49.078;12.878;2023-02-18T07:01:38;96896.91;;;16.65;31.60
44079;BME280;29744;49.078;12.878;2023-02-18T07:06:38;96891.81;;;16.64;31.42
44079;BME280;29744;49.078;12.878;2023-02-18T07:11:38;96896.75;;;16.62;31.84
44079;BME280;29744;49.078;12.878;2023-02-18T07:16:38;96896.75;;;16.62;31.52
44079;BME280;29744;49.078;12.878;2023-02-18T07:21:39;96891.66;;;16.60;31.87
44079;BME280;29744;49.078;12.878;2023-02-18T07:26:39;96894.03;;;16.62;31.56
44079;BME280;29744;49.078;12.878;2023-02-18T07:31:39;96885.59;;;16.63;31.58
44079;BME280;29744;49.078;12.878;2023-02-18T07:36:40;96882.56;;;16.65;31.53
44079;BME280;29744;49.078;12.878;2023-02-18T07:41:41;96866.78;;;16.67;31.81
44079;BME280;29744;49.078;12.878;2023-02-18T07:46:41;96866.91;;;16.70;31.81
44079;BME280;29744;49.078;12.878;2023-02-18T07:51:42;96875.50;;;16.72;31.34
44079;BME280;29744;49.078;12.878;2023-02-18T07:56:42;96867.84;;;16.75;31.85
44079;BME280;29744;49.078;12.878;2023-02-18T08:01:43;96867.53;;;16.76;31.61
44079;BME280;29744;49.078;12.878;2023-02-18T08:06:45;96863.69;;;16.77;31.23
44079;BME280;29744;49.078;12.878;2023-02-18T08:11:46;96862.91;;;16.77;31.65
44079;BME280;29744;49.078;12.878;2023-02-18T08:16:46;96861.00;;;16.77;31.72
44079;BME280;29744;49.078;12.878;2023-02-18T08:21:47;96864.03;;;16.76;31.70
44079;BME280;29744;49.078;12.878;2023-02-18T08:26:47;96864.34;;;16.74;31.46
44079;BME280;29744;49.078;12.878;2023-02-18T08:31:47;96863.09;;;16.71;31.73
44079;BME280;29744;49.078;12.878;2023-02-18T08:36:48;96865.81;;;16.71;31.09
44079;BME280;29744;49.078;12.878;2023-02-18T08:41:48;96865.34;;;16.69;31.30
44079;BME280;29744;49.078;12.878;2023-02-18T08:46:48;96857.88;;;16.66;31.39
44079;BME280;29744;49.078;12.878;2023-02-18T08:51:49;96862.81;;;16.64;31.46
44079;BME280;29744;49.078;12.878;2023-02-18T08:56:53;96865.06;;;16.62;31.62
44079;BME280;29744;49.078;12.878;2023-02-18T09:01:54;96851.03;;;16.60;31.54
44079;BME280;29744;49.078;12.878;2023-02-18T09:06:55;96857.13;;;16.57;31.56
44079;BME280;29744;49.078;12.878;2023-02-18T09:11:56;96856.66;;;16.55;31.41
44079;BME280;29744;49.078;12.878;2023-02-18T09:16:56;96836.09;;;16.54;31.40
44079;BME280;29744;49.078;12.878;2023-02-18T09:21:57;96843.72;;;16.52;31.39
44079;BME280;29744;49.078;12.878;2023-02-18T09:26:57;96834.03;;;16.51;31.88
44079;BME280;29744;49.078;12.878;2023-02-18T09:32:02;96821.94;;;16.49;31.87
44079;BME280;29744;49.078;12.878;2023-02-18T09:37:02;96824.97;;;16.47;31.67
44079;BME280;29744;49.078;12.878;2023-02-18T09:42:06;96822.91;;;16.44;31.64
44079;BME280;29744;49.078;12.878;2023-02-18T09:47:13;96824.34;;;16.41;31.76
44079;BME280;29744;49.078;12.878;2023-02-18T09:52:23;96810.31;;;16.39;31.54
44079;BME280;29744;49.078;12.878;2023-02-18T09:57:25;96808.28;;;16.36;31.83
44079;BME280;29744;49.078;12.878;2023-02-18T10:02:27;96792.03;;;16.36;31.73
44079;BME280;29744;49.078;12.878;2023-02-18T10:07:30;96800.00;;;16.33;32.14
44079;BME280;29744;49.078;12.878;2023-02-18T10:12:31;96794.13;;;16.31;31.81
44079;BME280;29744;49.078;12.878;2023-02-18T10:17:32;96793.19;;;16.27;31.68
44079;BME280;29744;49.078;12.878;2023-02-18T10:22:32;96794.63;;;16.24;31.85
44079;BME280;29744;49.078;12.878;2023-02-18T10:27:36;96790.66;;;16.22;31.46
44079;BME280;29744;49.078;12.878;2023-02-18T10:32:40;96793.69;;;16.20;32.08
44079;BME280;29744;49.078;12.878;2023-02-18T10:43:21;96774.94;;;16.15;31.97
44079;BME280;29744;49.078;12.878;2023-02-18T10:48:38;96762.06;;;16.12;31.75
44079;BME280;29744;49.078;12.878;2023-02-18T10:53:42;96755.41;;;16.09;31.62
44079;BME280;29744;49.078;12.878;2023-02-18T10:58:46;96753.81;;;16.08;31.89
44079;BME280;29744;49.078;12.878;2023-02-18T11:03:49;96736.31;;;16.06;31.71
44079;BME280;29744;49.078;12.878;2023-02-18T11:08:52;96734.25;;;16.03;31.98
44079;BME280;29744;49.078;12.878;2023-02-18T11:13:56;96733.78;;;16.01;31.76
44079;BME280;29744;49.078;12.878;2023-02-18T11:18:57;96713.59;;;15.98;32.29
44079;BME280;29744;49.078;12.878;2023-02-18T11:24:14;96706.94;;;15.96;32.38
44079;BME280;29744;49.078;12.878;2023-02-18T11:29:20;96704.88;;;15.93;32.19
44079;BME280;29744;49.078;12.878;2023-02-18T11:34:25;96693.91;;;15.89;31.96
44079;BME280;29744;49.078;12.878;2023-02-18T11:39:27;96692.34;;;15.88;32.06
44079;BME280;29744;49.078;12.878;2023-02-18T11:44:31;96681.38;;;15.85;31.88
44079;BME280;29744;49.078;12.878;2023-02-18T11:49:34;96672.78;;;15.83;32.32
44079;BME280;29744;49.078;12.878;2023-02-18T11:54:34;96661.50;;;15.81;32.16
44079;BME280;29744;49.078;12.878;2023-02-18T11:59:37;96642.88;;;15.79;32.15
44079;BME280;29744;49.078;12.878;2023-02-18T12:09:48;96636.06;;;15.73;32.56
44079;BME280;29744;49.078;12.878;2023-02-18T12:14:49;96634.03;;;15.70;32.30
44079;BME280;29744;49.078;12.878;2023-02-18T12:20:29;96636.59;;;15.66;32.64
44079;BME280;29744;49.078;12.878;2023-02-18T12:36:00;96616.59;;;15.59;32.49
44079;BME280;29744;49.078;12.878;2023-02-18T12:41:06;96599.91;;;15.57;32.50
44079;BME280;29744;49.078;12.878;2023-02-18T12:46:14;96608.34;;;15.55;32.37
44079;BME280;29744;49.078;12.878;2023-02-18T12:51:45;96612.47;;;15.53;32.44
44079;BME280;29744;49.078;12.878;2023-02-18T13:12:52;96593.94;;;15.42;32.42
44079;BME280;29744;49.078;12.878;2023-02-18T13:17:59;96573.44;;;15.41;32.68
44079;BME280;29744;49.078;12.878;2023-02-18T13:23:00;96564.53;;;15.41;32.37
44079;BME280;29744;49.078;12.878;2023-02-18T13:33:49;96564.72;;;15.36;32.42
44079;BME280;29744;49.078;12.878;2023-02-18T13:43:55;96560.75;;;15.33;32.73
44079;BME280;29744;49.078;12.878;2023-02-18T13:49:06;96561.88;;;15.32;32.68
44079;BME280;29744;49.078;12.878;2023-02-18T13:59:39;96553.16;;;15.27;32.62
44079;BME280;29744;49.078;12.878;2023-02-18T14:09:42;96546.16;;;15.26;32.55
44079;BME280;29744;49.078;12.878;2023-02-18T14:14:43;96539.19;;;15.25;32.95
44079;BME280;29744;49.078;12.878;2023-02-18T14:30:25;96532.16;;;15.32;32.56
44079;BME280;29744;49.078;12.878;2023-02-18T14:35:52;96531.16;;;15.37;32.59
44079;BME280;29744;49.078;12.878;2023-02-18T14:51:26;96533.56;;;15.59;32.71
44079;BME280;29744;49.078;12.878;2023-02-18T14:56:28;96536.22;;;15.68;32.88
44079;BME280;29744;49.078;12.878;2023-02-18T15:01:32;96539.34;;;15.78;32.24
44079;BME280;29744;49.078;12.878;2023-02-18T15:06:35;96540.09;;;15.88;32.84
44079;BME280;29744;49.078;12.878;2023-02-18T15:11:42;96537.31;;;15.96;32.55
44079;BME280;29744;49.078;12.878;2023-02-18T15:16:45;96533.75;;;16.04;32.16
44079;BME280;29744;49.078;12.878;2023-02-18T15:21:48;96539.44;;;16.12;32.13
44079;BME280;29744;49.078;12.878;2023-02-18T15:26:49;96536.84;;;16.15;32.40
44079;BME280;29744;49.078;12.878;2023-02-18T15:31:51;96552.88;;;16.20;32.36
44079;BME280;29744;49.078;12.878;2023-02-18T15:36:52;96559.22;;;16.24;32.64
44079;BME280;29744;49.078;12.878;2023-02-18T15:41:57;96555.50;;;16.29;32.43
44079;BME280;29744;49.078;12.878;2023-02-18T15:47:06;96545.94;;;16.31;32.25
44079;BME280;29744;49.078;12.878;2023-02-18T15:52:07;96556.75;;;16.31;32.48
44079;BME280;29744;49.078;12.878;2023-02-18T15:57:12;96548.31;;;16.33;32.21
44079;BME280;29744;49.078;12.878;2023-02-18T16:02:21;96544.03;;;16.32;32.44
44079;BME280;29744;49.078;12.878;2023-02-18T16:07:36;96552.47;;;16.30;32.10
44079;BME280;29744;49.078;12.878;2023-02-18T16:12:55;96569.50;;;16.31;32.41
44079;BME280;29744;49.078;12.878;2023-02-18T16:17:59;96577.94;;;16.29;32.11
44079;BME280;29744;49.078;12.878;2023-02-18T16:23:02;96575.59;;;16.28;32.25
44079;BME280;29744;49.078;12.878;2023-02-18T16:28:22;96561.91;;;16.24;31.99
44079;BME280;29744;49.078;12.878;2023-02-18T16:33:23;96573.06;;;16.23;32.55
44079;BME280;29744;49.078;12.878;2023-02-18T16:38:24;96579.63;;;16.22;31.85
44079;BME280;29744;49.078;12.878;2023-02-18T16:43:26;96584.22;;;16.21;32.13
44079;BME280;29744;49.078;12.878;2023-02-18T16:48:31;96587.28;;;16.20;32.40
44079;BME280;29744;49.078;12.878;2023-02-18T16:53:32;96596.50;;;16.19;32.08
44079;BME280;29744;49.078;12.878;2023-02-18T16:58:33;96605.41;;;16.19;32.13
44079;BME280;29744;49.078;12.878;2023-02-18T17:03:33;96612.75;;;16.19;32.07
44079;BME280;29744;49.078;12.878;2023-02-18T17:08:33;96617.50;;;16.22;32.04
44079;BME280;29744;49.078;12.878;2023-02-18T17:13:35;96631.03;;;16.22;32.19
44079;BME280;29744;49.078;12.878;2023-02-18T17:18:35;96636.09;;;16.23;31.97
44079;BME280;29744;49.078;12.878;2023-02-18T17:23:35;96639.59;;;16.24;31.91
44079;BME280;29744;49.078;12.878;2023-02-18T17:28:36;96647.72;;;16.24;32.37
44079;BME280;29744;49.078;12.878;2023-02-18T17:33:37;96641.53;;;16.23;32.25
44079;BME280;29744;49.078;12.878;2023-02-18T17:38:38;96644.22;;;16.23;32.48
44079;BME280;29744;49.078;12.878;2023-02-18T17:43:39;96655.84;;;16.24;31.92
44079;BME280;29744;49.078;12.878;2023-02-18T17:48:40;96658.09;;;16.22;31.92
44079;BME280;29744;49.078;12.878;2023-02-18T17:53:40;96661.91;;;16.21;32.42
44079;BME280;29744;49.078;12.878;2023-02-18T17:58:40;96661.44;;;16.19;32.11
44079;BME280;29744;49.078;12.878;2023-02-18T18:03:40;96669.09;;;16.17;32.26
44079;BME280;29744;49.078;12.878;2023-02-18T18:08:41;96682.16;;;16.15;32.19
44079;BME280;29744;49.078;12.878;2023-02-18T18:13:41;96684.41;;;16.13;32.30
44079;BME280;29744;49.078;12.878;2023-02-18T18:18:42;96677.72;;;16.10;32.17
44079;BME280;29744;49.078;12.878;2023-02-18T18:23:42;96678.84;;;16.09;32.06
44079;BME280;29744;49.078;12.878;2023-02-18T18:28:43;96676.47;;;16.07;32.39
44079;BME280;29744;49.078;12.878;2023-02-18T18:33:44;96688.41;;;16.06;32.59
44079;BME280;29744;49.078;12.878;2023-02-18T18:38:48;96693.50;;;16.08;32.55
44079;BME280;29744;49.078;12.878;2023-02-18T18:43:48;96693.50;;;16.08;32.10
44079;BME280;29744;49.078;12.878;2023-02-18T18:48:49;96691.59;;;16.08;32.23
44079;BME280;29744;49.078;12.878;2023-02-18T18:53:49;96692.84;;;16.11;32.10
44079;BME280;29744;49.078;12.878;2023-02-18T18:58:49;96681.69;;;16.13;32.57
44079;BME280;29744;49.078;12.878;2023-02-18T19:03:49;96701.91;;;16.15;32.58
44079;BME280;29744;49.078;12.878;2023-02-18T19:08:50;96693.13;;;16.18;32.34
44079;BME280;29744;49.078;12.878;2023-02-18T19:13:50;96688.19;;;16.20;32.53
44079;BME280;29744;49.078;12.878;2023-02-18T19:18:50;96702.16;;;16.22;32.45
44079;BME280;29744;49.078;12.878;2023-02-18T19:23:51;96695.31;;;16.25;32.19
44079;BME280;29744;49.078;12.878;2023-02-18T19:28:52;96699.94;;;16.24;32.00
44079;BME280;29744;49.078;12.878;2023-02-18T19:33:52;96711.22;;;16.26;32.46
44079;BME280;29744;49.078;12.878;2023-02-18T19:38:53;96708.50;;;16.26;32.25
44079;BME280;29744;49.078;12.878;2023-02-18T19:43:53;96715.03;;;16.25;31.91
44079;BME280;29744;49.078;12.878;2023-02-18T19:48:53;96720.78;;;16.24;32.21
44079;BME280;29744;49.078;12.878;2023-02-18T19:53:55;96702.97;;;16.23;32.25
44079;BME280;29744;49.078;12.878;2023-02-18T19:58:56;96724.16;;;16.21;32.49
44079;BME280;29744;49.078;12.878;2023-02-18T20:03:58;96716.81;;;16.21;31.98
44079;BME280;29744;49.078;12.878;2023-02-18T20:08:58;96727.19;;;16.19;32.60
44079;BME280;29744;49.078;12.878;2023-02-18T20:13:58;96727.50;;;16.18;32.38
44079;BME280;29744;49.078;12.878;2023-02-18T20:18:59;96726.25;;;16.15;32.53
44079;BME280;29744;49.078;12.878;2023-02-18T20:23:59;96729.59;;;16.12;32.14
44079;BME280;29744;49.078;12.878;2023-02-18T20:28:59;96728.00;;;16.11;32.40
44079;BME280;29744;49.078;12.878;2023-02-18T20:34:00;96728.66;;;16.08;32.30
44079;BME280;29744;49.078;12.878;2023-02-18T20:39:01;96733.63;;;16.06;32.38
44079;BME280;29744;49.078;12.878;2023-02-18T20:44:01;96718.50;;;16.05;32.22
44079;BME280;29744;49.078;12.878;2023-02-18T20:49:04;96726.94;;;16.03;32.44
44079;BME280;29744;49.078;12.878;2023-02-18T20:54:07;96725.03;;;16.04;32.05
44079;BME280;29744;49.078;12.878;2023-02-18T20:59:13;96732.34;;;16.03;32.19
44079;BME280;29744;49.078;12.878;2023-02-18T21:04:17;96736.19;;;16.02;32.10
44079;BME280;29744;49.078;12.878;2023-02-18T21:09:18;96728.53;;;16.04;32.11
44079;BME280;29744;49.078;12.878;2023-02-18T21:14:18;96739.69;;;16.03;32.58
44079;BME280;29744;49.078;12.878;2023-02-18T21:19:19;96732.69;;;16.02;32.53
44079;BME280;29744;49.078;12.878;2023-02-18T21:24:19;96727.28;;;16.02;32.25
44079;BME280;29744;49.078;12.878;2023-02-18T21:29:19;96724.88;;;16.00;32.28
44079;BME280;29744;49.078;12.878;2023-02-18T21:34:19;96723.78;;;16.01;32.32
44079;BME280;29744;49.078;12.878;2023-02-18T21:39:21;96729.84;;;15.98;32.14
44079;BME280;29744;49.078;12.878;2023-02-18T21:44:22;96734.44;;;15.98;32.34
44079;BME280;29744;49.078;12.878;2023-02-18T21:49:22;96733.66;;;15.97;32.66
44079;BME280;29744;49.078;12.878;2023-02-18T21:54:31;96728.56;;;15.96;32.41
44079;BME280;29744;49.078;12.878;2023-02-18T21:59:33;96721.91;;;15.93;32.69
44079;BME280;29744;49.078;12.878;2023-02-18T22:04:35;96710.63;;;15.91;32.62
44079;BME280;29744;49.078;12.878;2023-02-18T22:09:36;96718.25;;;15.89;32.45
44079;BME280;29744;49.078;12.878;2023-02-18T22:14:38;96706.19;;;15.87;32.73
44079;BME280;29744;49.078;12.878;2023-02-18T22:19:38;96711.91;;;15.85;32.74
44079;BME280;29744;49.078;12.878;2023-02-18T22:24:39;96717.66;;;15.84;32.27
44079;BME280;29744;49.078;12.878;2023-02-18T22:29:39;96709.06;;;15.82;32.53
44079;BME280;29744;49.078;12.878;2023-02-18T22:34:39;96711.31;;;15.80;32.57
44079;BME280;29744;49.078;12.878;2023-02-18T22:39:40;96712.72;;;15.77;32.77
44079;BME280;29744;49.078;12.878;2023-02-18T22:44:40;96705.25;;;15.74;32.51
44079;BME280;29744;49.078;12.878;2023-02-18T22:49:40;96706.38;;;15.73;32.31
44079;BME280;29744;49.078;12.878;2023-02-18T22:54:41;96707.03;;;15.70;32.80
44079;BME280;29744;49.078;12.878;2023-02-18T22:59:41;96704.63;;;15.68;32.44
44079;BME280;29744;49.078;12.878;2023-02-18T23:04:41;96698.75;;;15.66;32.36
44079;BME280;29744;49.078;12.878;2023-02-18T23:09:41;96709.09;;;15.64;32.69
44079;BME280;29744;49.078;12.878;2023-02-18T23:14:42;96708.63;;;15.62;32.92
44079;BME280;29744;49.078;12.878;2023-02-18T23:19:47;96700.84;;;15.61;32.69
44079;BME280;29744;49.078;12.878;2023-02-18T23:24:48;96696.09;;;15.58;32.69
44079;BME280;29744;49.078;12.878;2023-02-18T23:29:49;96694.50;;;15.57;32.95
44079;BME280;29744;49.078;12.878;2023-02-18T23:34:50;96682.44;;;15.54;32.93
44079;BME280;29744;49.078;12.878;2023-02-18T23:39:50;96679.25;;;15.52;32.66
44079;BME280;29744;49.078;12.878;2023-02-18T23:44:50;96682.28;;;15.51;32.79
44079;BME280;29744;49.078;12.878;2023-02-18T23:49:52;96683.72;;;15.48;32.87
44079;BME280;29744;49.078;12.878;2023-02-18T23:54:53;96672.44;;;15.46;32.56
44079;BME280;29744;49.078;12.878;2023-02-18T23:59:53;96680.88;;;15.44;32.65
